Time;durP1;ratioP1;P1;durP2;ratioP2;P2;SDS_P1;SDS_P2;PMS_P1;PMS_P2;Temp;Humidity;BMP_temperature;BMP_pressure;BME280_temperature;BME280_humidity;BME280_pressure;Samples;Min_cycle;Max_cycle;Signal;HPM_P1;HPM_P2
2020/12/08 00:01:18;;;;;;;25.70;12.30;;;0.80;99.90;;;;;;5048264;28;20683;-60
2020/12/08 00:03:43;;;;;;;22.13;11.20;;;0.80;99.90;;;;;;5033107;28;20194;-60
2020/12/08 00:06:09;;;;;;;22.93;12.73;;;0.80;99.90;;;;;;5042473;28;20178;-61
2020/12/08 00:08:35;;;;;;;25.40;12.30;;;0.80;99.90;;;;;;5049890;28;20184;-60
2020/12/08 00:11:01;;;;;;;21.60;11.63;;;0.90;99.90;;;;;;5044010;28;20196;-61
2020/12/08 00:13:26;;;;;;;23.20;11.10;;;0.90;99.90;;;;;;5029505;28;20591;-60
2020/12/08 00:15:52;;;;;;;22.70;11.80;;;0.90;99.90;;;;;;5042489;28;20546;-61
2020/12/08 00:18:17;;;;;;;19.30;10.60;;;0.90;99.90;;;;;;5049117;28;20184;-60
2020/12/08 00:20:43;;;;;;;23.60;10.90;;;0.90;99.90;;;;;;5034035;28;20189;-61
2020/12/08 00:23:10;;;;;;;22.93;11.70;;;0.90;99.90;;;;;;5028826;28;20209;-62
2020/12/08 00:25:36;;;;;;;27.17;11.67;;;0.90;99.90;;;;;;5047137;28;20424;-61
2020/12/08 00:28:01;;;;;;;25.87;12.23;;;1.00;99.90;;;;;;5048287;28;20439;-60
2020/12/08 00:30:27;;;;;;;23.57;11.10;;;1.00;99.90;;;;;;5038936;28;20188;-61
2020/12/08 00:32:52;;;;;;;24.60;11.63;;;1.00;99.90;;;;;;5049483;28;20563;-61
2020/12/08 00:35:19;;;;;;;24.70;12.30;;;1.00;99.90;;;;;;5062688;28;20183;-61
2020/12/08 00:37:45;;;;;;;28.27;13.47;;;1.00;99.90;;;;;;5044992;28;20238;-61
2020/12/08 00:40:11;;;;;;;21.77;11.67;;;1.00;99.90;;;;;;5036150;28;20427;-61
2020/12/08 00:42:39;;;;;;;26.53;12.27;;;1.00;99.90;;;;;;5051233;28;20451;-61
2020/12/08 00:45:06;;;;;;;28.70;12.57;;;1.10;99.90;;;;;;5070415;28;20446;-61
2020/12/08 00:47:32;;;;;;;25.37;12.07;;;1.10;99.90;;;;;;5047468;28;20499;-61
2020/12/08 00:49:58;;;;;;;27.83;11.83;;;1.10;99.90;;;;;;5052875;28;20580;-61
2020/12/08 00:52:23;;;;;;;29.60;13.10;;;1.10;99.90;;;;;;5051002;28;20197;-62
2020/12/08 00:54:49;;;;;;;28.50;12.57;;;1.20;99.90;;;;;;5030745;28;20300;-61
2020/12/08 00:57:21;;;;;;;25.30;12.20;;;1.20;99.90;;;;;;5049381;28;20235;-61
2020/12/08 00:59:47;;;;;;;23.80;12.70;;;1.20;99.90;;;;;;5043260;28;20201;-61
2020/12/08 01:02:17;;;;;;;28.10;13.13;;;1.20;99.90;;;;;;5028380;28;20435;-61
2020/12/08 01:04:44;;;;;;;25.70;12.90;;;1.20;99.90;;;;;;5044911;28;20439;-60
2020/12/08 01:07:10;;;;;;;22.50;11.37;;;1.20;99.90;;;;;;5054020;28;20507;-61
2020/12/08 01:09:36;;;;;;;24.87;13.20;;;1.20;99.90;;;;;;5067103;28;20578;-61
2020/12/08 01:12:02;;;;;;;23.53;12.43;;;1.20;99.90;;;;;;5034058;28;20589;-62
2020/12/08 01:14:28;;;;;;;27.37;12.90;;;1.20;99.90;;;;;;5047190;28;20849;-63
2020/12/08 01:17:02;;;;;;;26.10;11.97;;;1.20;99.90;;;;;;5046570;28;20446;-61
2020/12/08 01:19:28;;;;;;;22.00;11.47;;;1.20;99.90;;;;;;5047384;28;20796;-61
2020/12/08 01:21:54;;;;;;;24.87;12.10;;;1.20;99.90;;;;;;5046315;28;20446;-61
2020/12/08 01:24:20;;;;;;;26.93;11.97;;;1.20;99.90;;;;;;5047939;28;20325;-61
2020/12/08 01:26:46;;;;;;;23.97;12.73;;;1.10;99.90;;;;;;5047551;28;20575;-61
2020/12/08 01:29:12;;;;;;;28.10;13.13;;;1.10;99.90;;;;;;5042384;28;20435;-61
2020/12/08 01:31:38;;;;;;;25.37;12.90;;;1.20;99.90;;;;;;5042157;28;20439;-61
2020/12/08 01:34:07;;;;;;;24.20;12.80;;;1.20;99.90;;;;;;5045419;28;21063;-61
2020/12/08 01:36:34;;;;;;;20.40;11.13;;;1.20;99.90;;;;;;5017972;28;20533;-60
2020/12/08 01:38:59;;;;;;;27.03;13.00;;;1.20;99.90;;;;;;5050459;28;20844;-62
2020/12/08 01:41:28;;;;;;;24.20;12.07;;;1.10;99.90;;;;;;5045724;28;20455;-61
2020/12/08 01:43:54;;;;;;;25.73;11.80;;;1.10;99.90;;;;;;5029248;28;20291;-61
2020/12/08 01:46:25;;;;;;;25.70;12.40;;;1.10;99.90;;;;;;5049624;28;20435;-61
2020/12/08 01:48:52;;;;;;;23.70;12.07;;;1.20;99.90;;;;;;5051490;28;20431;-61
2020/12/08 01:51:20;;;;;;;25.67;11.77;;;1.20;99.90;;;;;;5051923;28;20472;-61
2020/12/08 01:53:48;;;;;;;22.63;12.47;;;1.20;99.90;;;;;;5064006;28;21031;-61
2020/12/08 01:56:15;;;;;;;26.70;12.43;;;1.20;99.90;;;;;;5054418;28;20455;-64
2020/12/08 01:58:41;;;;;;;28.77;13.77;;;1.20;99.90;;;;;;5054355;28;20481;-61
2020/12/08 02:01:11;;;;;;;25.73;12.23;;;1.20;99.90;;;;;;5055657;28;20451;-61
2020/12/08 02:03:37;;;;;;;33.10;14.47;;;1.20;99.90;;;;;;5056532;28;20489;-61
2020/12/08 02:06:02;;;;;;;27.93;13.50;;;1.20;99.90;;;;;;5033695;28;20815;-61
2020/12/08 02:08:29;;;;;;;27.73;13.37;;;1.20;99.90;;;;;;5049256;28;20435;-61
2020/12/08 02:10:56;;;;;;;26.37;12.77;;;1.10;99.90;;;;;;5050643;28;20192;-61
2020/12/08 02:13:23;;;;;;;26.10;12.17;;;1.10;99.90;;;;;;5050766;28;20451;-61
2020/12/08 02:15:49;;;;;;;27.07;12.67;;;1.10;99.90;;;;;;5045580;28;20505;-61
2020/12/08 02:18:15;;;;;;;31.03;13.43;;;1.10;99.90;;;;;;5027434;28;20435;-61
2020/12/08 02:20:41;;;;;;;26.77;12.10;;;1.10;99.90;;;;;;5035586;28;20526;-61
2020/12/08 02:23:08;;;;;;;29.63;12.27;;;1.10;99.90;;;;;;5042955;28;20687;-61
2020/12/08 02:25:34;;;;;;;23.93;12.00;;;1.10;99.90;;;;;;5047259;28;20435;-62
2020/12/08 02:27:59;;;;;;;28.87;12.77;;;1.10;99.90;;;;;;5033875;28;20447;-61
2020/12/08 02:30:28;;;;;;;26.60;13.13;;;1.10;99.90;;;;;;5029500;28;20185;-61
2020/12/08 02:32:54;;;;;;;28.57;12.70;;;1.10;99.90;;;;;;5047238;28;20671;-61
2020/12/08 02:35:20;;;;;;;24.27;11.57;;;1.20;99.90;;;;;;5051307;28;20459;-62
2020/12/08 02:37:46;;;;;;;27.73;13.03;;;1.20;99.90;;;;;;5048248;28;20185;-62
2020/12/08 02:40:12;;;;;;;27.93;13.20;;;1.10;99.90;;;;;;5029199;28;20215;-62
2020/12/08 02:42:37;;;;;;;26.33;13.00;;;1.10;99.90;;;;;;5048262;28;20452;-62
2020/12/08 02:45:03;;;;;;;25.23;11.60;;;1.10;99.90;;;;;;5011691;28;20192;-62
2020/12/08 02:47:30;;;;;;;30.90;13.60;;;1.10;99.90;;;;;;5046142;28;20234;-62
2020/12/08 02:49:58;;;;;;;28.80;13.10;;;1.10;99.90;;;;;;5044847;28;20432;-62
2020/12/08 02:52:24;;;;;;;30.73;14.00;;;1.10;99.90;;;;;;5045803;28;20513;-62
2020/12/08 02:54:49;;;;;;;28.83;12.80;;;1.10;99.90;;;;;;5031627;28;20506;-60
2020/12/08 02:57:15;;;;;;;26.30;13.23;;;1.20;99.90;;;;;;5049254;28;20639;-60
2020/12/08 02:59:41;;;;;;;28.03;13.30;;;1.20;99.90;;;;;;5031367;28;20420;-60
2020/12/08 03:02:07;;;;;;;27.57;13.03;;;1.20;99.90;;;;;;5049958;28;20203;-62
2020/12/08 03:04:36;;;;;;;28.00;13.70;;;1.20;99.90;;;;;;5049722;28;20577;-62
2020/12/08 03:07:02;;;;;;;31.33;14.17;;;1.10;99.90;;;;;;5021053;28;20454;-62
2020/12/08 03:09:27;;;;;;;27.03;12.90;;;1.10;99.90;;;;;;5058614;28;20467;-62
2020/12/08 03:11:53;;;;;;;29.30;13.93;;;1.20;99.90;;;;;;5070760;28;20210;-62
2020/12/08 03:14:19;;;;;;;30.23;13.97;;;1.20;99.90;;;;;;5069856;28;20227;-62
2020/12/08 03:16:45;;;;;;;27.00;12.90;;;1.10;99.90;;;;;;5052029;28;20190;-62
2020/12/08 03:19:11;;;;;;;29.07;13.20;;;1.10;99.90;;;;;;5054498;28;21036;-62
2020/12/08 03:21:38;;;;;;;30.97;13.40;;;1.10;99.90;;;;;;5051244;28;20239;-60
2020/12/08 03:24:04;;;;;;;31.50;15.03;;;1.10;99.90;;;;;;5051012;28;20451;-60
2020/12/08 03:26:29;;;;;;;27.93;12.80;;;1.10;99.90;;;;;;5060236;22;20478;-61
2020/12/08 03:29:01;;;;;;;31.53;14.77;;;1.00;99.90;;;;;;5044148;28;20675;-61
2020/12/08 03:31:27;;;;;;;29.53;13.50;;;1.10;99.90;;;;;;5046020;28;20427;-59
2020/12/08 03:33:52;;;;;;;31.57;15.00;;;1.10;99.90;;;;;;5045050;28;20265;-61
2020/12/08 03:36:18;;;;;;;32.17;15.10;;;1.10;99.90;;;;;;5027015;28;21101;-60
2020/12/08 03:38:47;;;;;;;32.53;13.73;;;1.10;99.90;;;;;;5038154;28;20555;-61
2020/12/08 03:41:26;;;;;;;29.60;15.03;;;1.10;99.90;;;;;;5035598;28;20236;-60
2020/12/08 03:43:52;;;;;;;33.20;13.97;;;1.10;99.90;;;;;;5031872;28;20444;-61
2020/12/08 03:46:19;;;;;;;32.60;13.33;;;1.10;99.90;;;;;;5028999;28;20466;-61
2020/12/08 03:48:44;;;;;;;32.80;14.10;;;1.10;99.90;;;;;;5017282;28;20432;-60
2020/12/08 03:51:15;;;;;;;31.20;15.00;;;1.10;99.90;;;;;;5027377;28;20464;-61
2020/12/08 03:53:41;;;;;;;37.30;15.20;;;1.10;99.90;;;;;;5029235;28;20259;-61
2020/12/08 03:56:11;;;;;;;33.93;13.83;;;1.10;99.90;;;;;;5026679;28;20985;-62
2020/12/08 03:58:37;;;;;;;31.97;14.40;;;1.00;99.90;;;;;;5022504;28;20445;-60
2020/12/08 04:01:02;;;;;;;31.80;15.13;;;1.00;99.90;;;;;;5033583;28;20471;-60
2020/12/08 04:03:28;;;;;;;35.17;14.87;;;1.00;99.90;;;;;;5025132;28;20607;-59
2020/12/08 04:06:00;;;;;;;32.93;15.60;;;1.00;99.90;;;;;;5026566;28;20197;-60
2020/12/08 04:08:26;;;;;;;31.80;15.37;;;1.00;99.90;;;;;;5026163;28;20803;-62
2020/12/08 04:10:52;;;;;;;38.53;15.07;;;1.00;99.90;;;;;;5031153;28;20434;-60
2020/12/08 04:13:17;;;;;;;32.40;14.43;;;1.00;99.90;;;;;;5026305;28;20437;-63
2020/12/08 04:15:46;;;;;;;33.10;13.97;;;1.00;99.90;;;;;;5025195;28;20205;-60
2020/12/08 04:18:11;;;;;;;36.77;14.47;;;1.00;99.90;;;;;;5025166;28;20259;-60
2020/12/08 04:20:41;;;;;;;40.50;15.40;;;1.00;99.90;;;;;;5032303;28;20436;-61
2020/12/08 04:23:06;;;;;;;32.40;14.23;;;1.00;99.90;;;;;;5030457;28;20169;-60
2020/12/08 04:25:33;;;;;;;35.70;14.67;;;1.00;99.90;;;;;;5027283;28;20823;-61
2020/12/08 04:28:02;;;;;;;36.10;16.23;;;1.00;99.90;;;;;;5027220;28;20475;-61
2020/12/08 04:30:28;;;;;;;37.70;14.87;;;1.00;99.90;;;;;;5011021;28;20443;-61
2020/12/08 04:32:54;;;;;;;32.87;14.73;;;1.00;99.90;;;;;;5024952;28;20480;-61
2020/12/08 04:35:19;;;;;;;36.67;15.33;;;0.90;99.90;;;;;;5027850;28;20978;-60
2020/12/08 04:37:45;;;;;;;26.63;12.30;;;0.90;99.90;;;;;;5028043;28;20205;-61
2020/12/08 04:40:12;;;;;;;37.33;15.90;;;0.90;99.90;;;;;;5023849;28;20453;-61
2020/12/08 04:42:45;;;;;;;32.90;14.73;;;0.80;99.90;;;;;;5014810;28;20563;-60
2020/12/08 04:45:11;;;;;;;35.53;14.70;;;0.80;99.90;;;;;;5024887;28;20455;-60
2020/12/08 04:47:39;;;;;;;38.20;15.27;;;0.80;99.90;;;;;;5006198;28;20551;-61
2020/12/08 04:50:05;;;;;;;32.43;15.00;;;0.90;99.90;;;;;;4999928;28;20817;-63
2020/12/08 04:52:31;;;;;;;29.63;13.53;;;0.90;99.90;;;;;;5027702;28;20520;-61
2020/12/08 04:54:57;;;;;;;33.10;14.40;;;0.90;99.90;;;;;;5022166;28;20602;-61
2020/12/08 04:57:23;;;;;;;30.40;13.80;;;0.90;99.90;;;;;;5018864;28;20459;-61
2020/12/08 05:00:10;;;;;;;38.80;15.40;;;0.90;99.90;;;;;;5011203;28;20481;-63
2020/12/08 05:02:50;;;;;;;34.30;16.27;;;1.00;99.90;;;;;;5004068;28;20436;-63
2020/12/08 05:05:17;;;;;;;36.13;16.70;;;1.00;99.90;;;;;;5024412;28;20980;-60
2020/12/08 05:07:42;;;;;;;35.03;15.53;;;1.00;99.90;;;;;;5025059;28;20467;-60
2020/12/08 05:10:09;;;;;;;38.93;16.50;;;0.90;99.90;;;;;;5025974;28;20532;-60
2020/12/08 05:12:35;;;;;;;39.47;15.97;;;0.90;99.90;;;;;;5024359;28;20190;-63
2020/12/08 05:15:02;;;;;;;32.03;14.00;;;0.90;99.90;;;;;;5003306;28;20467;-62
2020/12/08 05:17:29;;;;;;;33.97;14.53;;;0.90;99.90;;;;;;5017781;28;20214;-61
2020/12/08 05:20:22;;;;;;;33.13;14.03;;;0.90;99.90;;;;;;5017180;28;20440;-61
2020/12/08 05:22:56;;;;;;;30.47;12.83;;;0.90;99.90;;;;;;5020656;28;20440;-63
2020/12/08 05:25:25;;;;;;;42.47;15.60;;;0.90;99.90;;;;;;5025226;28;20440;-60
2020/12/08 05:27:51;;;;;;;40.50;16.50;;;0.80;99.90;;;;;;5027885;28;20550;-61
2020/12/08 05:30:18;;;;;;;37.00;16.30;;;0.90;99.90;;;;;;5022153;28;20468;-61
2020/12/08 05:32:44;;;;;;;42.90;18.40;;;0.80;99.90;;;;;;5024237;28;20435;-63
2020/12/08 05:35:12;;;;;;;38.93;15.50;;;0.80;99.90;;;;;;5026807;28;20499;-61
2020/12/08 05:37:40;;;;;;;42.50;16.37;;;0.80;99.90;;;;;;5029308;28;20979;-61
2020/12/08 05:40:08;;;;;;;36.27;15.43;;;0.80;99.90;;;;;;5033015;28;20517;-61
2020/12/08 05:42:37;;;;;;;40.10;16.87;;;0.90;99.90;;;;;;5032729;28;20527;-57
2020/12/08 05:45:05;;;;;;;37.40;16.00;;;0.90;99.90;;;;;;5019816;28;20474;-57
2020/12/08 05:47:39;;;;;;;38.63;15.63;;;0.90;99.90;;;;;;5023167;28;20833;-61
2020/12/08 05:50:06;;;;;;;36.27;16.27;;;0.80;99.90;;;;;;5032092;28;20416;-62
2020/12/08 05:52:34;;;;;;;39.47;16.73;;;0.90;99.90;;;;;;5031033;28;20805;-62
2020/12/08 05:55:10;;;;;;;38.43;15.50;;;0.80;99.90;;;;;;5033940;28;20526;-62
2020/12/08 05:57:36;;;;;;;35.83;14.90;;;0.90;99.90;;;;;;5013291;28;20458;-62
2020/12/08 06:00:05;;;;;;;37.77;16.07;;;0.90;99.90;;;;;;5003571;28;20431;-62
2020/12/08 06:02:31;;;;;;;37.33;15.90;;;0.80;99.90;;;;;;5029308;28;20421;-61
2020/12/08 06:04:58;;;;;;;38.13;15.87;;;0.80;99.90;;;;;;5014878;28;20447;-61
2020/12/08 06:07:31;;;;;;;40.20;15.70;;;0.80;99.90;;;;;;5037679;28;20447;-64
2020/12/08 06:10:10;;;;;;;41.73;16.03;;;0.80;99.90;;;;;;5030197;28;20530;-62
2020/12/08 06:12:39;;;;;;;34.37;15.73;;;0.70;99.90;;;;;;5042721;28;20932;-61
2020/12/08 06:15:22;;;;;;;36.70;16.37;;;0.70;99.90;;;;;;5015362;28;20464;-61
2020/12/08 06:17:48;;;;;;;36.37;15.47;;;0.70;99.90;;;;;;5033443;28;20980;-62
2020/12/08 06:20:14;;;;;;;34.30;14.60;;;0.70;99.90;;;;;;5041973;28;20888;-61
2020/12/08 06:22:39;;;;;;;37.50;15.50;;;0.70;99.90;;;;;;5034231;28;20427;-62
2020/12/08 06:25:05;;;;;;;32.97;14.80;;;0.70;99.90;;;;;;5037464;28;20192;-61
2020/12/08 06:27:32;;;;;;;38.17;16.47;;;0.70;99.90;;;;;;5035737;28;20472;-61
2020/12/08 06:29:58;;;;;;;37.17;16.40;;;0.70;99.90;;;;;;5032407;28;20209;-61
2020/12/08 06:32:30;;;;;;;34.93;14.97;;;0.70;99.90;;;;;;5013702;28;20429;-61
2020/12/08 06:35:13;;;;;;;35.20;14.70;;;0.70;99.90;;;;;;5037234;28;20546;-61
2020/12/08 06:37:53;;;;;;;42.03;15.47;;;0.70;99.90;;;;;;5036968;28;20456;-63
2020/12/08 06:40:22;;;;;;;42.70;16.23;;;0.70;99.90;;;;;;5042386;28;20423;-62
2020/12/08 06:42:49;;;;;;;40.10;15.57;;;0.80;99.90;;;;;;5039007;28;20993;-61
2020/12/08 06:45:20;;;;;;;44.07;17.83;;;0.80;99.90;;;;;;5041856;28;20428;-63
2020/12/08 06:47:46;;;;;;;32.33;13.90;;;0.80;99.90;;;;;;5040918;28;20450;-62
2020/12/08 06:50:28;;;;;;;33.37;14.10;;;0.80;99.90;;;;;;5029626;28;20789;-61
2020/12/08 06:52:56;;;;;;;36.90;14.83;;;0.80;99.90;;;;;;5037033;28;20436;-61
2020/12/08 06:55:22;;;;;;;34.00;15.13;;;0.80;99.90;;;;;;5038740;28;20472;-62
2020/12/08 06:57:48;;;;;;;35.70;14.83;;;0.80;99.90;;;;;;5040871;28;20950;-61
2020/12/08 07:00:14;;;;;;;34.60;15.20;;;0.80;99.90;;;;;;5035543;28;20420;-62
2020/12/08 07:02:41;;;;;;;38.90;15.93;;;0.80;99.90;;;;;;5030739;28;20170;-61
2020/12/08 07:05:07;;;;;;;35.80;13.97;;;0.80;99.90;;;;;;5038351;28;20431;-64
2020/12/08 07:07:33;;;;;;;35.63;14.90;;;0.80;99.90;;;;;;5035222;28;20517;-62
2020/12/08 07:10:00;;;;;;;38.77;15.53;;;0.70;99.90;;;;;;5052880;28;20415;-62
2020/12/08 07:12:25;;;;;;;41.17;16.10;;;0.70;99.90;;;;;;5038351;28;20581;-62
2020/12/08 07:14:58;;;;;;;38.53;15.70;;;0.70;99.90;;;;;;5024369;28;20887;-63
2020/12/08 07:17:30;;;;;;;42.90;16.60;;;0.70;99.90;;;;;;5032031;28;20211;-61
2020/12/08 07:19:56;;;;;;;39.43;16.37;;;0.70;99.90;;;;;;5041547;28;20415;-62
2020/12/08 07:22:22;;;;;;;37.00;15.80;;;0.70;99.90;;;;;;5035097;28;20508;-62
2020/12/08 07:24:48;;;;;;;36.03;15.30;;;0.70;99.90;;;;;;5020290;28;20187;-62
2020/12/08 07:27:14;;;;;;;32.83;15.37;;;0.60;99.90;;;;;;5036161;28;20933;-62
2020/12/08 07:29:40;;;;;;;31.13;14.00;;;0.60;99.90;;;;;;5013947;28;20571;-63
2020/12/08 07:32:06;;;;;;;33.47;13.87;;;0.50;99.90;;;;;;5034870;28;20603;-62
2020/12/08 07:34:32;;;;;;;31.20;14.27;;;0.50;99.90;;;;;;5036669;28;20444;-62
2020/12/08 07:36:57;;;;;;;32.07;13.63;;;0.50;99.90;;;;;;5015741;28;20471;-62
2020/12/08 07:39:23;;;;;;;38.27;17.20;;;0.50;99.90;;;;;;5049945;28;20192;-62
2020/12/08 07:41:48;;;;;;;35.47;14.30;;;0.50;99.90;;;;;;5031540;28;20231;-61
2020/12/08 07:44:17;;;;;;;34.33;14.77;;;0.50;99.90;;;;;;5035675;28;20223;-62
2020/12/08 07:46:50;;;;;;;31.27;14.23;;;0.60;99.90;;;;;;5041948;28;20264;-61
2020/12/08 07:49:15;;;;;;;36.70;15.37;;;0.60;99.90;;;;;;5035456;28;20423;-60
2020/12/08 07:51:42;;;;;;;36.73;15.80;;;0.70;99.90;;;;;;5017120;28;20437;-62
2020/12/08 07:54:08;;;;;;;34.53;14.67;;;0.80;99.90;;;;;;5029178;28;20501;-61
2020/12/08 07:56:37;;;;;;;36.00;14.80;;;0.80;99.90;;;;;;5038021;28;20216;-63
2020/12/08 07:59:05;;;;;;;34.30;15.33;;;0.80;99.90;;;;;;5020646;28;20883;-61
2020/12/08 08:01:42;;;;;;;37.93;14.90;;;0.80;99.90;;;;;;5017889;28;21201;-61
2020/12/08 08:04:08;;;;;;;31.53;13.17;;;0.80;99.90;;;;;;5026841;28;20456;-60
2020/12/08 08:06:34;;;;;;;27.43;13.73;;;0.80;99.90;;;;;;5035904;28;20982;-61
2020/12/08 08:09:04;;;;;;;32.37;14.57;;;0.80;99.90;;;;;;5013650;28;20458;-61
2020/12/08 08:11:31;;;;;;;35.20;14.30;;;0.80;99.90;;;;;;5045231;28;20267;-61
2020/12/08 08:13:57;;;;;;;32.47;14.10;;;0.80;99.90;;;;;;5019776;28;20429;-62
2020/12/08 08:16:23;;;;;;;35.40;13.60;;;0.80;99.90;;;;;;5020926;28;20491;-62
2020/12/08 08:18:48;;;;;;;31.40;13.20;;;0.80;99.90;;;;;;5025972;28;20643;-61
2020/12/08 08:21:14;;;;;;;29.00;14.67;;;0.80;99.90;;;;;;5030512;28;20186;-63
2020/12/08 08:23:40;;;;;;;38.00;14.87;;;0.90;99.90;;;;;;5033218;28;20514;-62
2020/12/08 08:26:08;;;;;;;35.50;14.17;;;0.90;99.90;;;;;;5041562;28;20220;-61
2020/12/08 08:28:34;;;;;;;32.63;14.57;;;0.90;99.90;;;;;;5033161;28;20915;-62
2020/12/08 08:31:00;;;;;;;36.53;13.67;;;0.90;99.90;;;;;;5033388;28;20461;-61
2020/12/08 08:33:26;;;;;;;31.90;13.47;;;0.90;99.90;;;;;;5031276;28;20447;-61
2020/12/08 08:35:52;;;;;;;35.10;14.00;;;0.90;99.90;;;;;;5032813;28;20468;-61
2020/12/08 08:38:18;;;;;;;37.00;15.57;;;0.90;99.90;;;;;;5032474;28;20986;-61
2020/12/08 08:40:44;;;;;;;32.10;15.27;;;0.90;99.90;;;;;;5032991;28;20197;-62
2020/12/08 08:43:10;;;;;;;31.43;12.33;;;0.90;99.90;;;;;;5020462;28;20472;-61
2020/12/08 08:45:36;;;;;;;34.87;14.27;;;0.80;99.90;;;;;;5017973;28;20472;-60
2020/12/08 08:48:02;;;;;;;31.13;13.33;;;0.80;99.90;;;;;;5033058;28;20220;-61
2020/12/08 08:50:29;;;;;;;30.97;13.03;;;0.80;99.90;;;;;;5027249;28;20234;-61
2020/12/08 08:52:54;;;;;;;31.83;13.83;;;0.70;99.90;;;;;;5032954;28;20532;-61
2020/12/08 08:55:20;;;;;;;37.30;15.20;;;0.70;99.90;;;;;;5034431;28;20554;-62
2020/12/08 08:57:46;;;;;;;29.93;14.20;;;0.70;99.90;;;;;;5025695;28;20260;-61
2020/12/08 09:00:11;;;;;;;34.90;15.27;;;0.60;99.90;;;;;;5023186;28;20440;-63
2020/12/08 09:02:38;;;;;;;39.83;15.20;;;0.60;99.90;;;;;;5018383;28;20178;-62
2020/12/08 09:05:06;;;;;;;30.20;13.20;;;0.60;99.90;;;;;;5027923;28;20193;-62
2020/12/08 09:07:32;;;;;;;34.30;14.03;;;0.60;99.90;;;;;;5029241;28;20456;-64
2020/12/08 09:09:58;;;;;;;39.43;14.60;;;0.70;99.90;;;;;;5037281;28;20416;-61
2020/12/08 09:12:25;;;;;;;31.80;13.27;;;0.70;99.90;;;;;;5022842;28;20471;-62
2020/12/08 09:14:56;;;;;;;32.93;13.80;;;0.80;99.90;;;;;;5021924;28;20464;-62
2020/12/08 09:17:23;;;;;;;31.10;13.20;;;0.80;99.90;;;;;;5019128;28;20532;-62
2020/12/08 09:19:49;;;;;;;31.97;14.00;;;0.90;99.90;;;;;;5040048;28;20431;-61
2020/12/08 09:22:15;;;;;;;33.77;14.30;;;0.90;99.90;;;;;;5044519;28;20435;-61
2020/12/08 09:24:41;;;;;;;33.13;14.47;;;0.90;99.90;;;;;;5030087;28;20439;-61
2020/12/08 09:27:06;;;;;;;31.03;14.60;;;0.90;99.80;;;;;;5032251;28;20217;-64
2020/12/08 09:29:34;;;;;;;37.37;15.53;;;1.00;99.90;;;;;;5017647;28;20637;-61
2020/12/08 09:32:00;;;;;;;33.90;14.17;;;1.00;99.90;;;;;;5002883;28;20209;-61
2020/12/08 09:34:27;;;;;;;37.13;15.57;;;1.00;99.90;;;;;;5030627;28;20432;-61
2020/12/08 09:36:53;;;;;;;39.43;16.47;;;1.00;99.90;;;;;;5043919;28;20881;-61
2020/12/08 09:39:20;;;;;;;33.10;13.60;;;1.10;99.60;;;;;;5034442;28;20440;-61
2020/12/08 09:41:45;;;;;;;36.87;15.37;;;1.20;99.70;;;;;;5013717;28;20498;-61
2020/12/08 09:44:11;;;;;;;32.47;13.93;;;1.20;99.50;;;;;;5024084;28;20432;-60
2020/12/08 09:46:38;;;;;;;33.00;14.53;;;1.30;99.40;;;;;;5000009;28;20251;-62
2020/12/08 09:49:04;;;;;;;28.60;13.33;;;1.30;98.90;;;;;;5025892;28;20442;-60
2020/12/08 09:51:30;;;;;;;32.73;14.90;;;1.40;98.80;;;;;;5037685;28;20462;-63
2020/12/08 09:53:57;;;;;;;35.27;13.70;;;1.40;98.90;;;;;;5042881;28;20435;-63
2020/12/08 09:56:23;;;;;;;33.87;15.00;;;1.50;98.90;;;;;;5027439;28;20581;-60
2020/12/08 09:58:50;;;;;;;33.70;15.20;;;1.50;98.70;;;;;;5020215;28;20440;-62
2020/12/08 10:01:15;;;;;;;33.53;15.13;;;1.60;98.80;;;;;;5023160;28;20920;-61
2020/12/08 10:03:42;;;;;;;33.83;14.57;;;1.70;98.50;;;;;;5023707;28;20441;-60
2020/12/08 10:06:08;;;;;;;34.77;14.80;;;1.80;98.50;;;;;;5041217;28;20439;-60
2020/12/08 10:08:34;;;;;;;33.23;14.50;;;1.90;98.60;;;;;;5034633;28;20460;-59
2020/12/08 10:10:59;;;;;;;36.27;15.00;;;2.10;98.20;;;;;;5040233;28;20427;-60
2020/12/08 10:13:25;;;;;;;33.80;14.53;;;2.10;97.60;;;;;;5046846;28;20182;-61
2020/12/08 10:15:51;;;;;;;34.03;14.53;;;2.20;97.40;;;;;;5037186;28;20209;-62
2020/12/08 10:18:16;;;;;;;33.97;14.50;;;2.10;97.10;;;;;;5032017;28;20198;-63
2020/12/08 10:20:42;;;;;;;40.83;15.50;;;2.10;97.10;;;;;;5037066;28;20726;-60
2020/12/08 10:23:08;;;;;;;37.67;15.60;;;2.10;97.10;;;;;;5038147;28;20272;-60
2020/12/08 10:25:33;;;;;;;39.47;15.63;;;2.00;96.80;;;;;;5036021;28;20236;-60
2020/12/08 10:28:00;;;;;;;32.57;15.43;;;2.00;96.70;;;;;;5041568;28;20247;-62
2020/12/08 10:30:26;;;;;;;35.60;15.37;;;1.90;96.80;;;;;;5017356;28;20196;-60
2020/12/08 10:32:52;;;;;;;37.60;15.37;;;1.90;96.80;;;;;;5014275;28;20442;-60
2020/12/08 10:35:18;;;;;;;35.40;16.50;;;1.90;96.90;;;;;;5035309;28;20457;-60
2020/12/08 10:37:44;;;;;;;32.67;14.67;;;1.80;97.20;;;;;;5037478;28;20469;-60
2020/12/08 10:40:10;;;;;;;41.33;15.90;;;1.90;97.80;;;;;;5027471;28;20190;-60
2020/12/08 10:42:36;;;;;;;43.83;16.77;;;1.90;98.00;;;;;;5028026;28;20959;-62
2020/12/08 10:45:02;;;;;;;28.17;13.53;;;2.00;97.80;;;;;;5012903;28;20445;-63
2020/12/08 10:47:28;;;;;;;30.53;13.90;;;2.00;97.50;;;;;;5026499;28;20452;-64
2020/12/08 10:49:54;;;;;;;33.17;14.90;;;2.10;97.40;;;;;;5031864;28;20478;-61
2020/12/08 10:52:23;;;;;;;33.30;13.70;;;2.10;97.50;;;;;;5034269;28;20432;-61
2020/12/08 10:54:49;;;;;;;36.03;14.90;;;2.30;97.30;;;;;;5022058;28;20463;-61
2020/12/08 10:57:14;;;;;;;32.30;13.50;;;2.40;97.20;;;;;;5027840;28;20452;-61
2020/12/08 10:59:40;;;;;;;27.30;12.93;;;2.60;96.90;;;;;;5028785;28;20434;-61
2020/12/08 11:02:06;;;;;;;33.57;14.93;;;2.70;96.30;;;;;;5027125;28;20595;-62
2020/12/08 11:04:32;;;;;;;29.80;13.73;;;2.90;96.30;;;;;;5032514;28;20179;-61
2020/12/08 11:06:59;;;;;;;28.43;13.57;;;3.00;95.50;;;;;;5032364;28;20487;-62
2020/12/08 11:09:25;;;;;;;32.70;14.23;;;3.10;95.10;;;;;;5031706;28;20419;-61
2020/12/08 11:11:51;;;;;;;27.60;13.00;;;3.20;95.00;;;;;;5033448;28;21005;-62
2020/12/08 11:14:16;;;;;;;33.63;13.43;;;3.30;95.00;;;;;;5011521;28;20448;-62
2020/12/08 11:16:42;;;;;;;37.63;14.63;;;3.40;94.80;;;;;;5021809;28;20264;-61
2020/12/08 11:19:08;;;;;;;32.23;14.47;;;3.50;94.20;;;;;;5028718;28;20225;-62
2020/12/08 11:21:37;;;;;;;32.90;14.77;;;3.50;93.90;;;;;;5043658;28;20475;-62
2020/12/08 11:24:02;;;;;;;29.77;13.50;;;3.50;93.80;;;;;;5032956;28;20465;-63
2020/12/08 11:26:31;;;;;;;33.50;14.30;;;3.60;93.70;;;;;;5031647;28;20465;-65
2020/12/08 11:28:57;;;;;;;26.93;13.57;;;3.50;93.50;;;;;;5021923;28;20266;-62
2020/12/08 11:31:23;;;;;;;29.63;14.20;;;3.50;94.00;;;;;;5004218;28;20441;-62
2020/12/08 11:33:49;;;;;;;32.57;14.80;;;3.50;94.00;;;;;;5004116;28;20821;-61
2020/12/08 11:36:14;;;;;;;29.83;13.60;;;3.50;94.10;;;;;;5026267;28;20197;-64
2020/12/08 11:38:41;;;;;;;32.90;14.03;;;3.50;94.30;;;;;;5024859;28;20280;-60
2020/12/08 11:41:09;;;;;;;27.07;12.77;;;3.60;94.50;;;;;;5033238;28;20187;-62
2020/12/08 11:43:36;;;;;;;24.23;12.00;;;3.70;94.40;;;;;;5017993;28;20965;-63
2020/12/08 11:46:03;;;;;;;26.03;11.70;;;3.70;94.20;;;;;;5017377;28;20488;-61
2020/12/08 11:48:29;;;;;;;23.30;11.40;;;3.60;93.90;;;;;;5024102;28;20552;-61
2020/12/08 11:50:56;;;;;;;29.77;13.20;;;3.50;93.90;;;;;;5032710;28;20466;-61
2020/12/08 11:53:22;;;;;;;26.70;12.63;;;3.40;93.90;;;;;;5029458;28;20430;-62
2020/12/08 11:55:49;;;;;;;25.90;12.13;;;3.30;94.50;;;;;;5000945;28;20480;-61
2020/12/08 11:58:15;;;;;;;24.93;11.93;;;3.20;94.60;;;;;;5018637;28;21142;-61
2020/12/08 12:00:41;;;;;;;26.90;12.10;;;3.10;94.80;;;;;;5029108;28;20831;-62
2020/12/08 12:03:07;;;;;;;26.43;12.63;;;3.00;95.20;;;;;;5022930;28;20431;-64
2020/12/08 12:05:32;;;;;;;26.37;13.23;;;2.90;95.50;;;;;;5024403;28;20222;-61
2020/12/08 12:07:58;;;;;;;26.50;12.90;;;2.90;96.00;;;;;;5028739;28;20878;-63
2020/12/08 12:10:24;;;;;;;26.70;12.63;;;2.90;96.30;;;;;;5025361;28;20215;-63
2020/12/08 12:12:49;;;;;;;29.23;13.73;;;2.90;96.90;;;;;;5003248;28;20325;-64
2020/12/08 12:15:15;;;;;;;26.73;12.73;;;2.90;97.10;;;;;;5023550;28;20548;-63
2020/12/08 12:17:41;;;;;;;27.57;12.97;;;3.00;97.10;;;;;;5029604;28;20235;-62
2020/12/08 12:20:08;;;;;;;27.00;13.23;;;3.00;96.90;;;;;;5024768;28;20649;-63
2020/12/08 12:22:34;;;;;;;24.37;12.97;;;3.00;97.30;;;;;;5024481;28;20200;-64
2020/12/08 12:25:00;;;;;;;24.30;11.93;;;3.10;96.90;;;;;;5030892;28;20435;-66
2020/12/08 12:27:26;;;;;;;25.00;11.47;;;3.10;96.60;;;;;;5027773;28;20520;-62
2020/12/08 12:29:52;;;;;;;27.27;12.83;;;3.10;96.50;;;;;;5019797;28;20454;-62
2020/12/08 12:32:17;;;;;;;30.23;12.70;;;3.10;96.40;;;;;;5021654;28;20266;-65
2020/12/08 12:34:43;;;;;;;31.93;13.80;;;3.10;96.70;;;;;;5028278;28;20206;-63